Time;durP1;ratioP1;P1;durP2;ratioP2;P2;SDS_P1;SDS_P2;PMS_P1;PMS_P2;Temp;Humidity;BMP_temperature;BMP_pressure;BME280_temperature;BME280_humidity;BME280_pressure;Samples;Min_cycle;Max_cycle;Signal;HPM_P1;HPM_P2
2022/06/10 00:01:50;;;;;;;12.77;8.35;;;;;;;18.91;86.23;98543.13;5014463;28;20470;-76
2022/06/10 00:04:16;;;;;;;19.08;8.82;;;;;;;18.41;87.37;98543.41;5013632;28;20061;-76
2022/06/10 00:06:41;;;;;;;12.55;8.63;;;;;;;18.10;89.98;98547.56;5013416;28;20485;-76
2022/06/10 00:09:07;;;;;;;19.98;9.82;;;;;;;18.04;90.31;98542.72;5014208;28;20054;-76
2022/06/10 00:11:32;;;;;;;14.05;9.35;;;;;;;17.96;91.26;98530.59;5011966;28;20036;-76
2022/06/10 00:13:58;;;;;;;12.70;8.52;;;;;;;18.21;91.10;98538.22;5011851;28;20128;-76
2022/06/10 00:16:23;;;;;;;11.63;9.00;;;;;;;18.08;90.06;98541.50;5012765;28;20045;-76
2022/06/10 00:18:50;;;;;;;16.25;10.18;;;;;;;18.23;91.21;98538.63;5012663;28;20362;-76
2022/06/10 00:21:17;;;;;;;16.55;8.98;;;;;;;18.57;89.14;98540.09;5013272;28;20661;-75
2022/06/10 00:23:43;;;;;;;18.50;10.02;;;;;;;18.28;89.66;98538.19;5014137;28;20026;-75
2022/06/10 00:26:10;;;;;;;25.25;10.00;;;;;;;18.38;90.39;98533.69;5013965;28;20100;-75
2022/06/10 00:28:36;;;;;;;12.65;9.43;;;;;;;18.10;90.92;98527.78;5012794;28;20424;-76
2022/06/10 00:31:03;;;;;;;13.20;8.20;;;;;;;18.17;91.64;98528.94;5011900;28;20112;-75
2022/06/10 00:33:29;;;;;;;9.85;7.65;;;;;;;18.15;90.52;98529.34;5012439;28;20018;-75
2022/06/10 00:35:55;;;;;;;10.48;7.80;;;;;;;18.33;89.70;98532.09;5022377;28;20046;-76
2022/06/10 00:38:20;;;;;;;13.02;7.95;;;;;;;18.07;88.01;98520.06;5033493;28;20026;-76
2022/06/10 00:40:52;;;;;;;12.82;6.70;;;;;;;18.42;88.58;98513.88;5032414;28;20033;-76
2022/06/10 00:43:22;;;;;;;10.82;6.68;;;;;;;18.48;88.17;98510.19;5033300;28;20022;-76
2022/06/10 00:45:53;;;;;;;6.93;6.10;;;;;;;18.55;87.52;98511.41;5031403;28;20021;-76
2022/06/10 00:48:26;;;;;;;9.75;6.85;;;;;;;18.66;86.53;98495.94;5031138;28;20032;-76
2022/06/10 00:50:51;;;;;;;17.20;6.75;;;;;;;18.74;86.60;98515.75;5032524;28;20476;-76
2022/06/10 00:53:21;;;;;;;9.65;5.63;;;;;;;18.89;85.18;98520.09;5032061;28;20083;-76
2022/06/10 00:55:53;;;;;;;7.45;5.97;;;;;;;18.92;84.41;98518.47;5033236;28;20053;-75
2022/06/10 00:58:39;;;;;;;11.07;6.60;;;;;;;19.11;84.45;98511.47;5031672;28;20112;-75
2022/06/10 01:01:04;;;;;;;8.88;6.10;;;;;;;19.33;83.05;98525.47;5029572;28;20025;-76
2022/06/10 01:03:30;;;;;;;7.22;5.53;;;;;;;19.55;81.93;98520.41;5029011;28;20029;-76
2022/06/10 01:05:56;;;;;;;7.40;5.35;;;;;;;19.44;82.36;98520.50;5029086;28;20530;-76
2022/06/10 01:08:22;;;;;;;6.60;5.70;;;;;;;19.43;82.58;98532.25;5029510;28;20021;-76
2022/06/10 01:11:19;;;;;;;10.52;6.55;;;;;;;19.46;81.71;98545.59;5030937;28;20029;-76
2022/06/10 01:14:29;;;;;;;13.75;6.38;;;;;;;19.44;82.42;98546.03;5031573;28;20025;-76
2022/06/10 01:17:21;;;;;;;13.95;7.50;;;;;;;19.19;83.57;98538.53;5027691;28;20049;-75
2022/06/10 01:20:05;;;;;;;9.93;7.70;;;;;;;19.08;84.50;98547.09;5031653;28;20033;-75
2022/06/10 01:23:23;;;;;;;13.63;8.13;;;;;;;19.02;85.64;98545.13;5032754;28;20037;-75
2022/06/10 01:26:07;;;;;;;16.83;8.00;;;;;;;19.17;85.20;98543.00;5031361;28;20025;-75
2022/06/10 01:29:11;;;;;;;12.10;8.13;;;;;;;19.36;84.66;98547.31;5032084;28;20116;-75
2022/06/10 01:32:01;;;;;;;12.60;7.93;;;;;;;19.18;83.88;98547.44;5030194;28;20033;-75
2022/06/10 01:34:33;;;;;;;;;;;;;;;19.07;84.46;98558.88;5033061;28;20052;-75
2022/06/10 01:36:58;;;;;;;10.88;7.95;;;;;;;18.92;85.32;98547.56;5032305;28;20012;-75
2022/06/10 01:39:47;;;;;;;8.90;7.60;;;;;;;18.99;84.73;98543.88;5032343;28;20108;-75
2022/06/10 01:42:33;;;;;;;10.00;7.30;;;;;;;19.27;83.75;98555.47;5011432;28;20113;-75
2022/06/10 01:45:13;;;;;;;7.03;6.35;;;;;;;19.32;83.51;98543.69;5012573;28;20021;-75
2022/06/10 01:47:43;;;;;;;13.10;7.95;;;;;;;19.33;83.91;98545.31;5023943;28;20144;-76
2022/06/10 01:50:22;;;;;;;10.20;7.57;;;;;;;19.12;85.05;98561.25;5030075;28;20408;-75
2022/06/10 01:53:12;;;;;;;10.48;7.30;;;;;;;18.99;86.23;98551.59;5032153;28;20030;-75
2022/06/10 01:56:09;;;;;;;10.55;7.75;;;;;;;19.17;84.79;98555.13;5030834;28;20395;-75
2022/06/10 01:59:01;;;;;;;16.90;7.82;;;;;;;19.21;83.62;98540.94;5031152;28;20029;-76
2022/06/10 02:01:38;;;;;;;9.50;6.15;;;;;;;19.19;83.79;98549.88;5029932;28;20081;-76
2022/06/10 02:04:13;;;;;;;8.40;6.78;;;;;;;19.10;84.08;98538.19;5030786;28;20033;-76
2022/06/10 02:06:46;;;;;;;10.38;6.60;;;;;;;19.26;83.44;98557.50;5032001;28;20389;-76
2022/06/10 02:09:16;;;;;;;12.38;6.80;;;;;;;19.21;82.86;98544.59;5031973;28;20488;-76
2022/06/10 02:11:47;;;;;;;11.70;7.13;;;;;;;19.19;83.89;98532.88;5030450;28;20027;-76
2022/06/10 02:14:26;;;;;;;9.30;7.43;;;;;;;19.08;83.54;98534.97;5030562;28;20060;-75
2022/06/10 02:16:55;;;;;;;10.80;7.47;;;;;;;19.13;83.59;98545.06;5029415;28;20037;-75
2022/06/10 02:19:31;;;;;;;7.32;6.63;;;;;;;19.07;83.88;98539.03;5031762;28;20100;-75
2022/06/10 02:22:06;;;;;;;9.38;6.85;;;;;;;19.00;83.92;98541.91;5029611;28;20031;-75
2022/06/10 02:24:40;;;;;;;8.57;7.53;;;;;;;19.13;82.92;98536.56;5031790;28;20481;-76
2022/06/10 02:27:12;;;;;;;15.40;6.97;;;;;;;19.23;81.37;98544.16;5031550;28;20021;-76
2022/06/10 02:29:51;;;;;;;10.60;7.47;;;;;;;19.29;81.00;98538.84;5031665;28;20050;-76
2022/06/10 02:32:17;;;;;;;10.80;6.88;;;;;;;19.35;80.23;98540.81;5028712;28;20033;-75
2022/06/10 02:34:43;;;;;;;8.95;7.28;;;;;;;19.42;80.32;98551.28;5031456;28;20499;-75
2022/06/10 02:37:21;;;;;;;11.45;7.53;;;;;;;19.55;79.50;98562.13;5031430;28;20154;-75
2022/06/10 02:39:55;;;;;;;30.27;8.90;;;;;;;19.42;80.10;98551.28;5031510;28;20027;-76
2022/06/10 02:42:35;;;;;;;37.53;10.05;;;;;;;19.34;81.31;98561.88;5028855;28;20108;-76
2022/06/10 02:45:24;;;;;;;35.45;8.70;;;;;;;19.35;81.83;98580.50;5030124;28;20025;-76
2022/06/10 02:47:59;;;;;;;10.18;7.68;;;;;;;19.36;81.81;98582.13;5010254;28;20038;-76
2022/06/10 02:50:25;;;;;;;19.02;16.80;;;;;;;19.32;82.41;98587.00;5014471;28;20022;-76
2022/06/10 02:52:51;;;;;;;20.27;9.80;;;;;;;19.19;82.60;98589.56;5030112;28;20027;-76
2022/06/10 02:55:20;;;;;;;16.48;9.00;;;;;;;19.10;82.23;98592.03;5031188;28;20032;-76
2022/06/10 03:03:46;;;;;;;13.52;7.90;;;;;;;18.70;85.31;98603.56;5030179;28;20543;-76
2022/06/10 03:06:18;;;;;;;12.00;7.88;;;;;;;18.33;86.68;98608.53;5031361;28;20017;-76
2022/06/10 03:08:55;;;;;;;11.55;7.32;;;;;;;18.10;88.68;98595.69;5026628;28;20029;-76
2022/06/10 03:11:37;;;;;;;11.25;7.97;;;;;;;18.21;88.82;98592.81;5022579;28;20558;-75
2022/06/10 03:14:41;;;;;;;11.15;7.25;;;;;;;18.50;87.40;98598.38;5024699;28;20420;-76
2022/06/10 03:17:19;;;;;;;11.38;8.07;;;;;;;18.74;85.80;98609.19;4983751;28;20037;-76
2022/06/10 03:20:02;;;;;;;11.98;7.53;;;;;;;18.77;86.53;98625.38;5020454;28;20436;-75
2022/06/10 03:22:55;;;;;;;14.48;8.02;;;;;;;18.69;86.38;98615.28;5024601;28;20346;-75
2022/06/10 03:25:30;;;;;;;15.55;9.27;;;;;;;18.59;87.26;98617.75;5020256;28;20393;-72
2022/06/10 03:27:58;;;;;;;37.35;10.10;;;;;;;18.48;87.10;98619.81;5030384;28;20079;-72
2022/06/10 03:30:33;;;;;;;21.58;9.23;;;;;;;17.94;88.95;98621.53;5029257;28;20029;-74
2022/06/10 03:33:10;;;;;;;11.02;7.95;;;;;;;18.09;89.54;98627.19;5031710;28;20021;-74
2022/06/10 03:35:44;;;;;;;11.60;8.27;;;;;;;18.13;90.38;98615.88;5034674;28;20060;-74
2022/06/10 03:38:10;;;;;;;12.85;8.32;;;;;;;18.34;89.35;98629.16;5031855;28;20035;-74
2022/06/10 03:40:37;;;;;;;10.77;7.32;;;;;;;18.51;87.27;98630.31;5028303;28;20026;-73
2022/06/10 03:43:05;;;;;;;14.32;7.00;;;;;;;18.54;87.25;98632.34;5032738;28;20548;-74
2022/06/10 03:45:50;;;;;;;7.88;6.60;;;;;;;18.66;86.81;98629.03;5031105;28;20535;-74
2022/06/10 03:48:19;;;;;;;18.13;7.30;;;;;;;18.70;87.00;98629.03;5031174;28;20029;-73
2022/06/10 03:50:47;;;;;;;16.50;8.20;;;;;;;18.86;85.85;98639.91;5030624;28;20026;-73
2022/06/10 03:53:19;;;;;;;12.18;7.28;;;;;;;18.88;85.59;98633.81;5032876;28;20025;-73
2022/06/10 03:55:45;;;;;;;11.00;8.23;;;;;;;18.95;85.35;98639.44;5032842;28;20420;-73
2022/06/10 03:58:11;;;;;;;12.18;7.90;;;;;;;19.03;86.28;98640.25;5032690;28;20025;-73
2022/06/10 04:00:37;;;;;;;11.38;8.07;;;;;;;18.99;86.35;98642.25;5031808;28;20267;-73
2022/06/10 04:03:03;;;;;;;9.68;6.75;;;;;;;18.86;86.89;98637.06;5015679;28;20063;-73
2022/06/10 04:05:29;;;;;;;10.98;8.15;;;;;;;18.83;86.17;98622.91;5012298;28;20025;-73
2022/06/10 04:07:55;;;;;;;10.73;8.30;;;;;;;18.81;85.59;98614.81;5011551;28;20503;-73
2022/06/10 04:10:24;;;;;;;10.85;7.10;;;;;;;18.97;85.21;98627.72;5013731;28;20552;-73
2022/06/10 04:12:49;;;;;;;11.88;8.25;;;;;;;18.93;85.57;98628.50;5032625;28;20040;-73
2022/06/10 04:15:16;;;;;;;15.90;8.88;;;;;;;19.05;85.31;98629.28;5032646;28;20053;-73
2022/06/10 04:17:46;;;;;;;10.70;8.45;;;;;;;19.00;85.15;98624.06;5032281;28;20116;-73
2022/06/10 04:20:35;;;;;;;12.93;7.88;;;;;;;19.06;84.55;98625.25;5033706;28;20021;-73
2022/06/10 04:23:02;;;;;;;11.80;8.52;;;;;;;19.12;84.51;98628.44;5014122;28;20037;-73
2022/06/10 04:25:28;;;;;;;13.45;7.75;;;;;;;19.17;84.46;98630.84;5012673;28;20026;-73
2022/06/10 04:27:54;;;;;;;18.60;9.10;;;;;;;19.13;84.28;98621.59;5013974;28;20045;-73
2022/06/10 04:30:34;;;;;;;13.50;8.07;;;;;;;19.06;84.25;98617.56;5027535;28;20109;-73
2022/06/10 04:33:01;;;;;;;13.80;9.02;;;;;;;19.14;85.16;98632.47;5031820;28;20041;-73
2022/06/10 04:35:27;;;;;;;14.80;9.77;;;;;;;19.20;85.21;98630.84;5033307;28;20045;-73
2022/06/10 04:37:54;;;;;;;10.20;7.43;;;;;;;19.34;85.39;98635.59;5033481;28;20026;-73
2022/06/10 04:40:22;;;;;;;12.35;8.13;;;;;;;19.47;85.15;98637.94;5033408;28;20504;-72
2022/06/10 04:42:49;;;;;;;15.20;8.65;;;;;;;19.56;83.11;98649.63;5033171;28;20412;-72
2022/06/10 04:45:17;;;;;;;9.65;8.48;;;;;;;19.63;83.00;98645.94;5033221;28;20021;-72
2022/06/10 04:47:43;;;;;;;19.73;7.85;;;;;;;19.78;81.95;98643.78;5031117;28;20034;-72
2022/06/10 04:50:11;;;;;;;10.10;8.60;;;;;;;19.82;81.55;98638.88;5031786;28;20025;-72
2022/06/10 04:52:37;;;;;;;14.55;8.25;;;;;;;19.88;82.09;98647.75;5031817;28;20116;-71
2022/06/10 04:55:05;;;;;;;26.13;9.18;;;;;;;20.10;80.91;98656.09;5033306;28;20100;-73
2022/06/10 04:57:31;;;;;;;11.63;8.00;;;;;;;20.14;79.51;98656.88;5033025;28;20473;-73
2022/06/10 04:59:56;;;;;;;8.45;7.55;;;;;;;19.94;79.35;98653.81;5032530;28;20061;-73
2022/06/10 05:02:22;;;;;;;14.73;8.02;;;;;;;20.00;78.93;98658.63;5028880;28;20036;-73
2022/06/10 05:04:48;;;;;;;7.38;6.57;;;;;;;19.97;77.76;98672.84;5032964;28;20689;-73
2022/06/10 05:07:13;;;;;;;9.70;6.50;;;;;;;19.99;77.50;98667.56;5031705;28;20013;-72
2022/06/10 05:09:39;;;;;;;11.48;8.25;;;;;;;19.97;77.47;98665.13;5031311;28;20100;-73
2022/06/10 05:12:05;;;;;;;11.40;8.98;;;;;;;20.13;79.00;98663.78;5030896;28;20214;-73
2022/06/10 05:14:30;;;;;;;8.88;7.75;;;;;;;20.28;79.01;98661.59;5032661;28;20560;-73
2022/06/10 05:16:56;;;;;;;14.25;8.57;;;;;;;20.43;77.49;98653.75;5030717;28;20120;-73
2022/06/10 05:19:23;;;;;;;10.68;8.93;;;;;;;20.40;77.07;98651.75;5031966;28;20037;-73
2022/06/10 05:21:48;;;;;;;11.85;8.60;;;;;;;20.39;76.93;98658.66;5031111;28;20040;-73
2022/06/10 05:24:14;;;;;;;14.45;9.13;;;;;;;20.51;77.63;98654.47;5029317;28;20399;-73
2022/06/10 05:26:40;;;;;;;13.85;11.27;;;;;;;20.66;76.75;98649.44;5024584;28;20025;-73
2022/06/10 05:29:06;;;;;;;14.13;12.20;;;;;;;20.66;77.53;98655.91;5029194;28;20106;-73
2022/06/10 05:31:32;;;;;;;13.35;11.98;;;;;;;20.52;77.96;98637.03;5026794;28;20056;-73
2022/06/10 05:36:42;;;;;;;17.33;14.63;;;;;;;20.50;77.15;98655.72;5031512;28;20281;-73
2022/06/10 05:39:08;;;;;;;22.55;17.20;;;;;;;20.78;78.46;98654.56;5031736;28;20034;-73
2022/06/10 05:44:18;;;;;;;23.08;17.38;;;;;;;21.04;75.92;98655.09;5027958;28;20031;-73
2022/06/10 05:46:43;;;;;;;21.27;18.77;;;;;;;20.99;76.87;98647.00;5030600;28;20116;-73
2022/06/10 05:49:09;;;;;;;19.35;17.35;;;;;;;21.16;75.75;98648.81;5031869;28;20090;-73
2022/06/10 05:51:35;;;;;;;25.48;21.58;;;;;;;21.39;75.97;98664.34;5028848;28;20030;-73
2022/06/10 05:54:00;;;;;;;28.27;24.85;;;;;;;21.40;74.35;98665.94;5032027;28;20083;-73
2022/06/10 05:56:26;;;;;;;25.38;22.80;;;;;;;21.46;74.47;98678.44;5032280;28;20029;-73
2022/06/10 05:58:52;;;;;;;24.80;21.52;;;;;;;21.58;73.64;98674.22;5030865;28;20029;-74
2022/06/10 06:01:17;;;;;;;24.67;21.45;;;;;;;21.41;72.21;98680.97;5028044;28;20738;-74
2022/06/10 06:03:43;;;;;;;27.48;22.50;;;;;;;21.29;74.83;98677.47;5030019;28;20495;-74
2022/06/10 06:06:08;;;;;;;27.92;22.63;;;;;;;21.06;75.41;98663.16;5031892;28;20083;-75
2022/06/10 06:08:35;;;;;;;25.05;20.90;;;;;;;21.00;75.62;98674.22;5030617;28;20412;-74
2022/06/10 06:11:01;;;;;;;25.35;21.05;;;;;;;20.82;74.72;98674.44;5030498;28;20041;-74
2022/06/10 06:13:26;;;;;;;28.33;22.55;;;;;;;20.81;76.01;98667.09;5031804;28;20037;-74
2022/06/10 06:15:52;;;;;;;27.25;24.20;;;;;;;20.93;77.29;98658.03;5030595;28;20060;-73
2022/06/10 06:18:18;;;;;;;38.13;26.50;;;;;;;21.28;77.46;98663.69;5027720;28;20025;-72
2022/06/10 06:20:43;;;;;;;28.15;25.13;;;;;;;21.25;74.92;98679.56;5027338;28;20477;-72
2022/06/10 06:23:09;;;;;;;33.97;26.05;;;;;;;21.22;74.92;98671.06;5031794;28;20036;-71
2022/06/10 06:25:34;;;;;;;31.85;25.63;;;;;;;21.27;76.00;98667.78;5031640;28;20091;-73
2022/06/10 06:28:00;;;;;;;29.80;25.50;;;;;;;21.17;74.89;98666.66;5026871;28;21616;-71
2022/06/10 06:30:31;;;;;;;36.67;27.67;;;;;;;20.88;75.59;98678.41;5026129;28;20029;-71
2022/06/10 06:33:05;;;;;;;29.23;25.98;;;;;;;20.94;76.85;98678.75;5028999;28;20029;-71
2022/06/10 06:35:33;;;;;;;33.47;25.15;;;;;;;20.84;76.67;98684.16;5028702;28;20073;-72
2022/06/10 06:37:58;;;;;;;32.92;26.63;;;;;;;20.73;76.30;98681.41;5017960;28;20029;-71
2022/06/10 06:40:24;;;;;;;33.95;26.70;;;;;;;20.67;76.11;98697.28;5028394;28;20049;-73
2022/06/10 06:42:50;;;;;;;36.88;30.63;;;;;;;20.74;76.36;98693.56;5029240;28;20033;-72
2022/06/10 06:45:19;;;;;;;41.05;34.33;;;;;;;20.63;76.13;98693.69;5029470;28;20076;-71
2022/06/10 06:47:44;;;;;;;42.95;29.83;;;;;;;20.61;77.29;98713.22;5027667;28;20033;-71
2022/06/10 06:50:13;;;;;;;36.67;30.23;;;;;;;20.62;74.60;98698.56;5032302;28;20083;-73
2022/06/10 06:52:40;;;;;;;38.80;31.35;;;;;;;20.68;75.94;98713.09;5028767;28;20516;-75
2022/06/10 06:55:06;;;;;;;38.63;33.20;;;;;;;20.45;77.15;98710.94;5014726;28;20034;-74
2022/06/10 06:57:32;;;;;;;41.63;33.08;;;;;;;20.80;76.60;98703.25;5031227;28;20095;-72
2022/06/10 07:00:06;;;;;;;38.50;31.63;;;;;;;20.69;76.56;98702.56;5033652;28;20033;-77
2022/06/10 07:02:34;;;;;;;37.10;30.85;;;;;;;20.78;75.70;98700.03;5034300;28;20116;-80
2022/06/10 07:05:00;;;;;;;37.53;29.48;;;;;;;21.01;74.92;98698.56;5030842;28;20022;-74
2022/06/10 07:07:26;;;;;;;42.28;32.00;;;;;;;21.08;74.86;98684.25;5034752;28;20026;-74
2022/06/10 07:09:51;;;;;;;42.92;32.00;;;;;;;21.16;77.71;98707.72;5034567;28;20550;-72
2022/06/10 07:12:17;;;;;;;36.00;31.15;;;;;;;21.22;76.10;98699.50;5032803;28;20490;-75
2022/06/10 07:14:42;;;;;;;41.25;33.50;;;;;;;21.11;74.40;98688.28;5030825;28;20079;-74
2022/06/10 07:17:08;;;;;;;43.03;34.63;;;;;;;21.26;75.28;98698.22;5031840;28;20048;-76
2022/06/10 07:19:34;;;;;;;38.72;34.33;;;;;;;21.30;75.27;98695.34;5032097;28;20060;-74
2022/06/10 07:21:59;;;;;;;46.88;36.65;;;;;;;21.42;73.81;98694.75;5032443;28;20069;-74
2022/06/10 07:24:25;;;;;;;43.10;32.75;;;;;;;21.49;75.20;98685.31;5032417;28;20026;-74
2022/06/10 07:26:51;;;;;;;41.42;33.22;;;;;;;21.76;74.60;98693.06;5018098;28;20029;-73
2022/06/10 07:29:18;;;;;;;38.08;32.75;;;;;;;21.69;74.41;98704.56;5014218;28;20133;-75
2022/06/10 07:31:44;;;;;;;37.92;30.60;;;;;;;21.80;70.25;98701.56;5032684;28;20492;-74
2022/06/10 07:34:10;;;;;;;36.58;29.70;;;;;;;21.81;69.65;98694.63;5032867;28;20499;-74
2022/06/10 07:36:37;;;;;;;39.50;31.02;;;;;;;21.85;70.76;98699.03;5032918;28;20543;-74
2022/06/10 07:39:03;;;;;;;36.47;29.00;;;;;;;22.01;68.53;98703.25;5033102;28;20032;-74
2022/06/10 07:44:13;;;;;;;36.78;29.42;;;;;;;22.44;70.40;98696.81;5033175;28;20128;-74
2022/06/10 07:46:38;;;;;;;31.42;27.45;;;;;;;22.52;68.85;98696.72;5032896;28;20082;-74
2022/06/10 07:49:05;;;;;;;35.38;28.35;;;;;;;22.77;66.90;98684.03;5032666;28;20029;-74
2022/06/10 07:51:31;;;;;;;33.05;26.67;;;;;;;22.67;65.08;98678.09;5032765;28;20030;-74
2022/06/10 07:53:56;;;;;;;33.92;24.90;;;;;;;22.93;64.59;98677.59;5033702;28;20492;-75
2022/06/10 07:56:22;;;;;;;33.70;26.23;;;;;;;22.95;63.26;98677.94;5033340;28;20026;-74
2022/06/10 07:58:50;;;;;;;34.08;25.00;;;;;;;23.04;61.19;98691.63;5031880;28;20051;-74
2022/06/10 08:01:16;;;;;;;30.80;25.30;;;;;;;23.01;63.54;98699.00;5032878;28;20030;-74
2022/06/10 08:03:42;;;;;;;29.98;25.00;;;;;;;22.81;62.44;98699.00;5019853;28;20026;-74
2022/06/10 08:06:07;;;;;;;36.70;25.88;;;;;;;22.91;64.30;98706.53;5033944;28;20033;-74
2022/06/10 08:08:33;;;;;;;29.63;25.05;;;;;;;22.84;62.38;98700.97;5031221;28;20021;-76
2022/06/10 08:10:59;;;;;;;29.98;25.63;;;;;;;22.61;62.48;98716.09;5033536;28;20079;-73
2022/06/10 08:13:26;;;;;;;27.83;23.30;;;;;;;22.71;63.25;98715.06;5032264;28;20491;-79
2022/06/10 08:15:51;;;;;;;30.40;24.98;;;;;;;22.71;63.39;98720.78;5030673;28;20076;-74
2022/06/10 08:18:19;;;;;;;32.55;25.77;;;;;;;22.69;61.78;98721.19;5029472;28;20507;-74
2022/06/10 08:23:31;;;;;;;27.98;24.05;;;;;;;22.85;62.41;98714.78;5032734;28;20024;-74
2022/06/10 08:25:59;;;;;;;28.80;24.88;;;;;;;23.09;63.44;98708.19;5025642;28;20199;-74
2022/06/10 08:28:26;;;;;;;29.83;23.60;;;;;;;23.06;62.07;98714.78;5032259;28;20024;-74
2022/06/10 08:30:52;;;;;;;35.47;26.52;;;;;;;23.09;63.69;98711.06;5031571;28;20460;-75
2022/06/10 08:33:18;;;;;;;28.70;24.85;;;;;;;23.26;64.26;98700.50;5032261;28;20033;-75
2022/06/10 08:35:45;;;;;;;31.27;24.23;;;;;;;23.39;61.69;98706.38;5023649;28;20048;-76
2022/06/10 08:38:13;;;;;;;28.30;23.23;;;;;;;23.31;62.45;98711.44;5048227;28;20036;-76
2022/06/10 08:40:47;;;;;;;28.38;22.73;;;;;;;23.47;60.62;98709.88;5030066;28;20485;-75
2022/06/10 08:43:40;;;;;;;27.08;23.98;;;;;;;23.56;62.14;98716.56;5030095;28;20500;-74
2022/06/10 08:46:50;;;;;;;26.77;23.15;;;;;;;23.36;61.72;98710.13;4980366;28;20037;-77
2022/06/10 08:49:33;;;;;;;;;;;;;;;23.32;60.60;98718.75;5032441;28;20029;-75
2022/06/10 08:52:14;;;;;;;26.42;22.63;;;;;;;23.41;60.98;98716.13;5033198;28;20403;-77
2022/06/10 08:54:51;;;;;;;;;;;;;;;23.63;62.12;98715.59;5033804;28;20021;-74
2022/06/10 08:57:32;;;;;;;26.70;23.33;;;;;;;23.72;60.05;98714.19;5029922;28;19921;-75
2022/06/10 09:00:00;;;;;;;33.58;23.60;;;;;;;23.59;61.86;98697.78;5031718;28;20126;-75
2022/06/10 09:02:44;;;;;;;27.08;24.27;;;;;;;23.78;61.74;98709.59;5016028;28;20045;-72
2022/06/10 09:05:17;;;;;;;29.55;24.08;;;;;;;23.90;60.05;98719.47;5027541;28;20033;-72
2022/06/10 09:07:52;;;;;;;28.80;23.25;;;;;;;23.74;59.23;98706.00;5028948;28;20049;-73
2022/06/10 09:10:32;;;;;;;28.33;24.10;;;;;;;23.80;59.86;98698.50;5030100;28;20492;-73
2022/06/10 09:13:13;;;;;;;27.65;24.10;;;;;;;24.00;59.45;98711.88;5027151;28;20036;-74
2022/06/10 09:16:03;;;;;;;25.52;22.73;;;;;;;23.79;57.94;98711.97;5028652;28;20515;-78
2022/06/10 09:18:47;;;;;;;28.42;25.38;;;;;;;23.72;59.52;98714.19;5027990;28;20418;-75
2022/06/10 09:21:23;;;;;;;29.23;26.13;;;;;;;23.58;60.25;98686.78;5028285;28;20512;-73
2022/06/10 09:23:48;;;;;;;32.00;27.08;;;;;;;23.89;60.38;98703.59;5027173;28;20428;-76
2022/06/10 09:26:31;;;;;;;30.75;27.17;;;;;;;23.77;60.59;98705.09;5024984;28;20032;-76
2022/06/10 09:28:57;;;;;;;28.65;25.75;;;;;;;23.71;60.15;98704.81;5027632;28;20120;-75
2022/06/10 09:31:55;;;;;;;30.70;27.40;;;;;;;23.65;58.75;98707.44;5026873;28;20029;-77
2022/06/10 09:34:52;;;;;;;36.50;28.40;;;;;;;23.61;59.03;98698.13;5009949;28;20041;-77
2022/06/10 09:37:45;;;;;;;35.20;27.17;;;;;;;23.60;60.91;98696.53;5024771;28;20359;-77
2022/06/10 09:43:19;;;;;;;32.05;28.67;;;;;;;23.87;59.63;98701.19;5027292;28;20043;-74
2022/06/10 09:45:57;;;;;;;29.15;26.23;;;;;;;23.43;57.86;98712.78;5027811;28;20108;-75
2022/06/10 09:48:47;;;;;;;30.90;27.77;;;;;;;23.78;58.74;98707.50;5024907;28;20071;-77
2022/06/10 09:51:36;;;;;;;;;;;;;;;23.96;58.25;98706.28;5020674;28;20033;-76
2022/06/10 09:54:14;;;;;;;36.80;27.63;;;;;;;24.02;59.28;98707.34;5023564;28;19971;-77
2022/06/10 09:57:01;;;;;;;30.40;27.17;;;;;;;24.00;59.38;98707.00;5025834;28;20022;-77
2022/06/10 09:59:57;;;;;;;34.10;27.92;;;;;;;23.92;58.52;98703.53;5018340;28;20037;-78
2022/06/10 10:02:41;;;;;;;31.35;26.90;;;;;;;23.90;58.18;98700.31;5024186;28;20030;-79
2022/06/10 10:05:20;;;;;;;33.78;27.83;;;;;;;23.97;59.38;98694.41;5023986;28;20085;-80
2022/06/10 10:07:58;;;;;;;33.97;27.30;;;;;;;24.06;58.13;98688.09;5033205;28;20029;-81
2022/06/10 10:10:44;;;;;;;29.50;24.23;;;;;;;24.00;57.21;98691.91;5030072;28;20091;-81
2022/06/10 10:13:46;;;;;;;30.35;26.77;;;;;;;24.10;58.92;98688.00;5026380;28;20102;-81
2022/06/10 10:16:20;;;;;;;31.65;26.98;;;;;;;24.28;59.00;98683.91;5026202;28;20028;-81
2022/06/10 10:19:09;;;;;;;31.60;28.08;;;;;;;24.44;58.35;98683.84;5030095;28;20069;-81
2022/06/10 10:21:42;;;;;;;28.05;24.98;;;;;;;24.35;56.11;98683.69;5030510;28;20136;-79
2022/06/10 10:24:18;;;;;;;33.55;25.92;;;;;;;24.29;56.92;98671.22;5028913;28;20025;-80
2022/06/10 10:26:45;;;;;;;29.80;24.58;;;;;;;24.34;56.01;98670.66;5029326;28;20026;-82
2022/06/10 10:29:19;;;;;;;31.80;26.33;;;;;;;24.46;56.25;98669.13;5029359;28;20037;-81
2022/06/10 10:32:10;;;;;;;31.30;27.35;;;;;;;24.44;55.97;98675.28;5030766;28;20021;-80
2022/06/10 10:34:39;;;;;;;31.83;27.45;;;;;;;24.52;58.31;98687.31;5023492;28;20027;-80
2022/06/10 10:37:27;;;;;;;31.42;26.67;;;;;;;24.31;56.87;98672.34;5021159;28;20048;-78
2022/06/10 10:39:59;;;;;;;32.47;25.70;;;;;;;24.45;57.71;98668.31;5030132;28;20094;-76
2022/06/10 10:42:32;;;;;;;31.13;25.13;;;;;;;24.50;54.96;98666.97;5028836;28;20120;-78
2022/06/10 10:45:26;;;;;;;46.60;27.15;;;;;;;24.50;57.62;98661.25;5047615;28;20036;-78
2022/06/10 10:47:58;;;;;;;28.80;25.38;;;;;;;24.43;56.35;98650.81;5013546;28;20049;-78
2022/06/10 10:50:30;;;;;;;26.85;23.58;;;;;;;24.46;56.08;98649.91;5011735;28;20104;-78
2022/06/10 10:52:56;;;;;;;29.10;24.33;;;;;;;24.73;57.50;98656.53;5010598;28;20061;-78
2022/06/10 10:55:34;;;;;;;30.00;23.15;;;;;;;24.77;55.33;98651.53;5020815;28;20488;-77
2022/06/10 10:58:17;;;;;;;28.38;22.15;;;;;;;24.79;56.04;98658.41;5030898;28;20496;-78
2022/06/10 11:00:45;;;;;;;25.42;20.95;;;;;;;24.78;55.49;98656.00;5027264;28;20021;-77
2022/06/10 11:03:35;;;;;;;35.15;22.55;;;;;;;24.56;55.75;98664.38;5027336;28;20475;-78
2022/06/10 11:06:04;;;;;;;28.38;22.05;;;;;;;24.68;55.90;98660.75;5021842;28;20022;-78
2022/06/10 11:08:39;;;;;;;23.80;19.48;;;;;;;24.78;54.84;98651.09;5026761;28;20039;-78
2022/06/10 11:11:17;;;;;;;27.33;21.27;;;;;;;24.70;55.52;98652.53;5023419;28;20052;-78
2022/06/10 11:13:54;;;;;;;24.13;18.02;;;;;;;24.71;53.80;98633.31;5033248;28;20037;-77
2022/06/10 11:16:29;;;;;;;24.13;20.08;;;;;;;24.87;54.39;98641.84;5036535;28;20030;-77
2022/06/10 11:19:08;;;;;;;26.25;19.70;;;;;;;24.92;53.26;98651.94;5040798;28;20415;-79
2022/06/10 11:21:54;;;;;;;25.20;19.98;;;;;;;24.64;53.79;98649.41;5029860;28;20112;-76
2022/06/10 11:24:26;;;;;;;23.52;19.08;;;;;;;24.62;54.25;98649.06;5042879;28;20041;-75
2022/06/10 11:26:58;;;;;;;26.52;18.80;;;;;;;24.81;53.52;98640.81;5025195;28;20037;-74
2022/06/10 11:29:25;;;;;;;24.45;20.38;;;;;;;24.95;53.08;98646.13;5031101;28;20039;-75
2022/06/10 11:31:59;;;;;;;21.30;16.38;;;;;;;24.80;52.15;98633.50;5029502;28;20110;-76
2022/06/10 11:34:54;;;;;;;21.10;16.83;;;;;;;24.85;52.47;98634.97;5027487;28;20420;-75
2022/06/10 11:37:31;;;;;;;18.67;16.27;;;;;;;24.64;53.53;98634.34;5023701;28;20093;-74
2022/06/10 11:40:21;;;;;;;24.05;17.27;;;;;;;24.45;54.79;98633.25;5027818;28;20415;-75
2022/06/10 11:42:53;;;;;;;27.48;18.45;;;;;;;24.27;56.64;98619.44;5032556;28;20059;-75
2022/06/10 11:45:24;;;;;;;24.33;19.05;;;;;;;24.30;56.70;98632.81;5031598;28;20037;-75
2022/06/10 11:47:58;;;;;;;24.30;19.67;;;;;;;24.39;57.25;98630.91;5026229;28;20022;-75
2022/06/10 11:50:26;;;;;;;27.25;19.45;;;;;;;24.33;58.01;98632.72;5032731;28;20041;-76
2022/06/10 11:53:02;;;;;;;31.23;21.35;;;;;;;24.36;61.48;98625.28;5036500;28;20116;-75
2022/06/10 11:55:40;;;;;;;24.85;20.48;;;;;;;24.28;60.51;98629.63;5024173;28;20041;-76
2022/06/10 12:01:23;;;;;;;25.83;19.33;;;;;;;24.05;62.83;98640.00;5032620;28;20051;-74
2022/06/10 12:03:55;;;;;;;;;;;;;;;23.98;64.16;98635.25;5026605;28;20100;-75
2022/06/10 12:06:23;;;;;;;26.83;20.40;;;;;;;23.73;65.64;98633.84;5030938;28;19920;-74
2022/06/10 12:08:52;;;;;;;24.75;20.85;;;;;;;23.80;67.55;98627.16;5030830;28;20032;-75
2022/06/10 12:11:44;;;;;;;29.45;20.05;;;;;;;23.68;70.61;98649.44;5018228;28;20033;-75